首页
METAR-TAF:

METAR-TAF

机场 :

尼姆, 法国

纬度: 43-45N, 经度: 004-25E, 海拔: 94米

当前天气观测

该预报发布于43分钟前的10:30 UTC
风速3节,风向多变
温度 37°C
湿度 31%
气压 1020 hPa
能见度10公里或以上
1500米以下无云,无积雨云

METAR: LFTW 271030Z AUTO VRB03KT CAVOK 37/17 Q1020 NOSIG

时间: 13:13 (11:13 UTC)

预报

该预报发布于3小时和13分钟前的08:00 UTC
预报有效从27日的 09点(UTC)到 28日的 09点(UTC)
风速5节,风向多变
能见度10公里或以上
1500米以下无云,无积雨云
短暂存在
从 27日的 11点(UTC)到 27日的 20点(UTC)
风速10节,风向西南

TAF: LFTW 270800Z 2709/2809 VRB05KT CAVOK TEMPO 2711/2720 23010KT

超过4000个机场的气象观测和天气预报(METAR&TAF报告)。

可查询的气象台以黄色和红色小点在地图上表示。

将鼠标移到小点上方,可查看气象台名称。

然后点击查看天气观测和预报。

如需切换地图:点击带黑十字的绿色按钮放大地图;点击带横线的绿色按钮缩小地图;或者点击绿色箭头查看邻近地区的地图。


METAR-TAF: